createdAt,value
2018-02-04T00:01:45.207Z,16.20
2018-02-04T00:04:15.319Z,14.60
2018-02-04T00:06:44.882Z,17.73
2018-02-04T00:09:15.186Z,17.07
2018-02-04T00:11:45.616Z,14.07
2018-02-04T00:14:15.757Z,14.37
2018-02-04T00:16:45.415Z,14.87
2018-02-04T00:19:15.587Z,14.43
2018-02-04T00:21:45.335Z,16.00
2018-02-04T00:24:15.053Z,15.77
2018-02-04T00:26:45.277Z,12.77
2018-02-04T00:29:15.042Z,15.37
2018-02-04T00:31:45.139Z,13.03
2018-02-04T00:34:15.526Z,15.03
2018-02-04T00:36:45.611Z,12.40
2018-02-04T00:39:15.190Z,13.10
2018-02-04T00:41:45.128Z,14.20
2018-02-04T00:44:15.953Z,12.83
2018-02-04T00:46:45.684Z,14.60
2018-02-04T00:49:16.370Z,14.47
2018-02-04T00:51:45.777Z,19.10
2018-02-04T00:54:17.328Z,18.20
2018-02-04T00:56:47.012Z,19.73
2018-02-04T00:59:17.236Z,14.17
2018-02-04T01:01:47.548Z,11.87
2018-02-04T01:04:17.602Z,17.67
2018-02-04T01:06:47.436Z,15.80
2018-02-04T01:09:18.505Z,17.70
2018-02-04T01:11:48.768Z,16.37
2018-02-04T01:14:19.134Z,13.50
2018-02-04T01:16:49.047Z,15.73
2018-02-04T01:19:18.647Z,18.10
2018-02-04T01:21:48.209Z,14.53
2018-02-04T01:24:18.094Z,12.50
2018-02-04T01:26:48.769Z,16.03
2018-02-04T01:29:18.361Z,12.97
2018-02-04T01:31:48.314Z,14.30
2018-02-04T01:34:17.830Z,18.53
2018-02-04T01:36:49.213Z,15.30
2018-02-04T01:39:18.962Z,16.67
2018-02-04T01:41:49.495Z,15.50
2018-02-04T01:44:20.020Z,15.47
2018-02-04T01:46:49.601Z,18.37
2018-02-04T01:49:18.849Z,18.43
2018-02-04T01:51:48.444Z,16.23
2018-02-04T01:54:18.495Z,16.73
2018-02-04T01:56:48.506Z,16.60
2018-02-04T01:59:18.225Z,17.30
2018-02-04T02:01:48.098Z,17.97
2018-02-04T02:04:18.306Z,19.10
2018-02-04T02:06:47.957Z,18.63
2018-02-04T02:09:17.576Z,15.57
2018-02-04T02:11:47.090Z,18.73
2018-02-04T02:14:17.155Z,17.90
2018-02-04T02:16:47.054Z,17.10
2018-02-04T02:19:16.944Z,18.50
2018-02-04T02:21:47.372Z,16.07
2018-02-04T02:24:16.811Z,22.00
2018-02-04T02:26:46.196Z,18.73
2018-02-04T02:29:15.639Z,18.43
2018-02-04T02:31:45.416Z,18.37
2018-02-04T02:34:15.686Z,19.50
2018-02-04T02:36:45.430Z,17.10
2018-02-04T02:39:17.605Z,24.13
2018-02-04T02:41:47.014Z,17.40
2018-02-04T02:44:17.220Z,19.77
2018-02-04T02:46:47.468Z,18.83
2018-02-04T02:49:18.347Z,20.90
2018-02-04T02:51:48.718Z,19.67
2018-02-04T02:54:20.519Z,16.80
2018-02-04T02:56:50.248Z,19.40
2018-02-04T02:59:19.881Z,17.27
2018-02-04T03:01:49.726Z,21.60
2018-02-04T03:04:19.250Z,18.30
2018-02-04T03:06:49.204Z,18.40
2018-02-04T03:09:19.174Z,16.93
2018-02-04T03:11:48.984Z,21.33
2018-02-04T03:14:18.759Z,17.97
2018-02-04T03:16:48.377Z,22.13
2018-02-04T03:19:20.062Z,16.87
2018-02-04T03:21:50.338Z,15.67
2018-02-04T03:24:20.380Z,20.40
2018-02-04T03:26:50.103Z,17.30
2018-02-04T03:29:19.493Z,23.17
2018-02-04T03:31:50.381Z,22.67
2018-02-04T03:34:21.268Z,18.80
2018-02-04T03:36:51.135Z,17.83
2018-02-04T03:39:21.396Z,18.47
2018-02-04T03:41:51.320Z,18.00
2018-02-04T03:44:20.761Z,15.50
2018-02-04T03:46:50.681Z,18.60
2018-02-04T03:49:20.257Z,16.50
2018-02-04T03:51:50.169Z,16.67
2018-02-04T03:54:20.732Z,17.50
2018-02-04T03:56:50.658Z,17.10
2018-02-04T03:59:21.868Z,17.83
2018-02-04T04:01:51.763Z,15.57
2018-02-04T04:04:21.805Z,16.73
2018-02-04T04:06:51.852Z,18.80
2018-02-04T04:09:21.968Z,20.27
2018-02-04T04:11:52.114Z,18.37
2018-02-04T04:14:21.678Z,15.90
2018-02-04T04:16:51.403Z,19.10
2018-02-04T04:19:21.776Z,17.90
2018-02-04T04:21:52.817Z,20.13
2018-02-04T04:24:22.411Z,18.20
2018-02-04T04:26:52.120Z,19.50
2018-02-04T04:29:22.163Z,16.00
2018-02-04T04:31:51.864Z,17.67
2018-02-04T04:34:22.226Z,19.50
2018-02-04T04:36:52.899Z,22.90
2018-02-04T04:39:22.636Z,17.57
2018-02-04T04:41:53.287Z,18.30
2018-02-04T04:44:23.804Z,19.83
2018-02-04T04:46:54.515Z,19.00
2018-02-04T04:49:24.747Z,19.40
2018-02-04T04:51:54.606Z,23.33
2018-02-04T04:54:24.486Z,16.70
2018-02-04T04:56:54.269Z,18.03
2018-02-04T04:59:44.031Z,26.60
2018-02-04T05:02:14.405Z,21.17
2018-02-04T05:04:44.165Z,16.63
2018-02-04T05:07:14.199Z,18.03
2018-02-04T05:09:43.795Z,15.83
2018-02-04T05:12:13.863Z,18.80
2018-02-04T05:14:43.730Z,19.17
2018-02-04T05:17:13.487Z,17.03
2018-02-04T05:19:42.848Z,19.77
2018-02-04T05:22:12.482Z,21.97
2018-02-04T05:24:42.567Z,17.50
2018-02-04T05:27:12.472Z,16.60
2018-02-04T05:29:43.989Z,19.67
2018-02-04T05:32:15.198Z,16.67
2018-02-04T05:34:46.563Z,20.43
2018-02-04T05:37:16.150Z,16.83
2018-02-04T05:39:46.226Z,18.17
2018-02-04T05:42:16.448Z,18.17
2018-02-04T05:44:46.042Z,16.50
2018-02-04T05:47:16.135Z,20.53
2018-02-04T05:49:47.841Z,18.17
2018-02-04T05:52:17.623Z,19.53
2018-02-04T05:54:47.391Z,17.97
2018-02-04T05:57:19.054Z,19.20
2018-02-04T05:59:49.249Z,17.70
2018-02-04T06:02:19.111Z,20.47
2018-02-04T06:04:48.876Z,16.57
2018-02-04T06:07:19.002Z,19.17
2018-02-04T06:09:49.111Z,17.97
2018-02-04T06:12:19.100Z,17.80
2018-02-04T06:14:48.941Z,17.70
2018-02-04T06:17:20.081Z,20.63
2018-02-04T06:19:50.427Z,17.93
2018-02-04T06:22:21.732Z,21.10
2018-02-04T06:24:51.762Z,26.60
2018-02-04T06:27:22.581Z,21.13
2018-02-04T06:29:52.783Z,18.93
2018-02-04T06:32:24.382Z,15.17
2018-02-04T06:34:54.439Z,21.97
2018-02-04T06:37:25.126Z,20.57
2018-02-04T06:39:54.491Z,21.33
2018-02-04T06:42:24.350Z,16.33
2018-02-04T06:44:53.913Z,18.47
2018-02-04T06:47:23.997Z,15.70
2018-02-04T06:49:53.649Z,21.07
2018-02-04T06:52:23.596Z,18.93
2018-02-04T06:54:54.324Z,22.57
2018-02-04T06:57:24.078Z,17.53
2018-02-04T06:59:54.010Z,22.43
2018-02-04T07:02:23.922Z,19.10
2018-02-04T07:04:53.433Z,22.20
2018-02-04T07:07:23.100Z,19.23
2018-02-04T07:09:53.426Z,17.23
2018-02-04T07:12:23.147Z,17.87
2018-02-04T07:14:52.708Z,20.90
2018-02-04T07:17:22.590Z,18.77
2018-02-04T07:19:51.837Z,16.90
2018-02-04T07:22:21.440Z,17.00
2018-02-04T07:24:51.315Z,15.00
2018-02-04T07:27:20.750Z,14.80
2018-02-04T07:29:50.518Z,10.43
2018-02-04T07:32:19.992Z,11.63
2018-02-04T07:34:50.748Z,8.70
2018-02-04T07:37:21.495Z,7.43
2018-02-04T07:39:51.742Z,6.87
2018-02-04T07:42:21.359Z,5.83
2018-02-04T07:44:51.956Z,10.53
2018-02-04T07:47:21.920Z,6.97
2018-02-04T07:49:52.832Z,9.23
2018-02-04T07:52:22.625Z,9.03
2018-02-04T07:54:52.737Z,9.40
2018-02-04T07:57:23.186Z,9.40
2018-02-04T07:59:53.574Z,11.20
2018-02-04T08:02:23.218Z,11.37
2018-02-04T08:04:54.990Z,10.03
2018-02-04T08:07:25.197Z,9.43
2018-02-04T08:09:56.780Z,10.67
2018-02-04T08:12:26.758Z,11.20
2018-02-04T08:14:57.354Z,14.40
2018-02-04T08:17:27.762Z,13.10
2018-02-04T08:19:58.637Z,12.93
2018-02-04T08:22:28.261Z,11.27
2018-02-04T08:24:58.827Z,11.50
2018-02-04T08:27:28.921Z,11.60
2018-02-04T08:30:01.401Z,11.57
2018-02-04T08:32:33.337Z,10.37
2018-02-04T08:35:04.886Z,11.53
2018-02-04T08:37:34.819Z,13.47
2018-02-04T08:40:06.028Z,10.40
2018-02-04T08:42:36.260Z,11.57
2018-02-04T08:45:07.759Z,9.77
2018-02-04T08:47:37.345Z,12.37
2018-02-04T08:50:06.895Z,12.90
2018-02-04T08:52:37.223Z,12.70
2018-02-04T08:55:08.986Z,10.53
2018-02-04T08:57:38.535Z,11.80
2018-02-04T09:00:09.702Z,14.90
2018-02-04T09:02:40.085Z,13.57
2018-02-04T09:05:10.206Z,10.87
2018-02-04T09:07:40.452Z,17.40
2018-02-04T09:10:11.031Z,13.67
2018-02-04T09:12:42.405Z,15.97
2018-02-04T09:15:13.136Z,12.67
2018-02-04T09:17:43.592Z,17.97
2018-02-04T09:20:14.655Z,16.10
2018-02-04T09:22:44.396Z,16.20
2018-02-04T09:25:14.181Z,14.43
2018-02-04T09:27:43.780Z,17.07
2018-02-04T09:30:13.188Z,16.10
2018-02-04T09:32:43.099Z,17.47
2018-02-04T09:35:14.623Z,19.67
2018-02-04T09:37:44.692Z,19.50
2018-02-04T09:40:14.738Z,18.50
2018-02-04T09:42:44.103Z,14.67
2018-02-04T09:45:13.968Z,18.93
2018-02-04T09:47:43.678Z,20.00
2018-02-04T09:50:13.271Z,15.73
2018-02-04T09:52:43.355Z,18.63
2018-02-04T09:55:13.902Z,16.83
2018-02-04T09:57:44.911Z,18.50
2018-02-04T10:00:14.324Z,16.17
2018-02-04T10:02:44.561Z,15.17
2018-02-04T10:05:14.961Z,20.70
2018-02-04T10:07:45.350Z,17.83
2018-02-04T10:10:15.375Z,15.10
2018-02-04T10:12:48.269Z,18.30
2018-02-04T10:15:18.270Z,22.90
2018-02-04T10:17:48.633Z,16.20
2018-02-04T10:20:19.192Z,18.67
2018-02-04T10:22:50.376Z,16.30
2018-02-04T10:25:21.362Z,23.40
2018-02-04T10:27:52.218Z,17.20
2018-02-04T10:30:22.896Z,18.63
2018-02-04T10:32:54.547Z,12.70
2018-02-04T10:35:25.199Z,15.00
2018-02-04T10:37:55.378Z,14.77
2018-02-04T10:40:25.913Z,13.83
2018-02-04T10:42:56.264Z,17.47
2018-02-04T10:45:26.145Z,14.27
2018-02-04T10:47:56.854Z,15.07
2018-02-04T10:50:26.623Z,16.80
2018-02-04T10:52:57.970Z,11.73
2018-02-04T10:55:28.799Z,20.10
2018-02-04T10:57:59.762Z,14.07
2018-02-04T11:00:30.341Z,15.87
2018-02-04T11:03:00.192Z,13.53
2018-02-04T11:05:30.096Z,15.23
2018-02-04T11:08:00.469Z,14.53
2018-02-04T11:10:31.749Z,13.87
2018-02-04T11:13:01.201Z,11.07
2018-02-04T11:15:31.595Z,12.13
2018-02-04T11:18:01.498Z,13.87
2018-02-04T11:20:30.915Z,12.00
2018-02-04T11:23:01.288Z,14.70
2018-02-04T11:25:31.052Z,15.17
2018-02-04T11:28:02.061Z,13.33
2018-02-04T11:30:31.768Z,13.10
2018-02-04T11:33:02.719Z,12.53
2018-02-04T11:35:34.065Z,14.73
2018-02-04T11:38:04.779Z,10.83
2018-02-04T11:40:35.953Z,14.93
2018-02-04T11:43:06.502Z,14.97
2018-02-04T11:45:38.004Z,13.93
2018-02-04T11:48:08.317Z,11.47
2018-02-04T11:50:40.370Z,12.90
2018-02-04T11:53:11.421Z,13.53
2018-02-04T11:55:42.128Z,13.77
2018-02-04T11:58:11.842Z,11.10
2018-02-04T12:00:42.729Z,11.97
2018-02-04T12:03:12.715Z,11.77
2018-02-04T12:05:44.941Z,10.90
2018-02-04T12:08:14.690Z,11.73
2018-02-04T12:10:44.427Z,12.63
2018-02-04T12:13:14.491Z,12.30
2018-02-04T12:15:45.370Z,13.97
2018-02-04T12:18:15.270Z,13.10
2018-02-04T12:20:45.923Z,11.90
2018-02-04T12:23:15.791Z,11.37
2018-02-04T12:25:45.520Z,13.70
2018-02-04T12:28:15.667Z,12.27
2018-02-04T12:30:45.441Z,12.43
2018-02-04T12:33:15.923Z,12.43
2018-02-04T12:35:46.524Z,13.07
2018-02-04T12:38:17.464Z,14.50
2018-02-04T12:40:48.209Z,10.50
2018-02-04T12:43:18.306Z,13.77
2018-02-04T12:45:47.921Z,15.17
2018-02-04T12:48:18.196Z,13.07
2018-02-04T12:50:48.579Z,11.80
2018-02-04T12:53:18.146Z,16.23
2018-02-04T12:55:51.414Z,16.40
2018-02-04T12:58:22.323Z,12.10
2018-02-04T13:00:53.120Z,14.00
2018-02-04T13:03:23.111Z,13.80
2018-02-04T13:05:54.507Z,14.20
2018-02-04T13:08:24.645Z,14.90
2018-02-04T13:10:55.401Z,13.57
2018-02-04T13:13:25.148Z,13.40
2018-02-04T13:15:55.741Z,14.70
2018-02-04T13:18:25.237Z,15.83
2018-02-04T13:20:57.095Z,14.17
2018-02-04T13:23:26.868Z,14.40
2018-02-04T13:25:57.424Z,15.70
2018-02-04T13:28:27.819Z,17.90
2018-02-04T13:30:58.668Z,16.57
2018-02-04T13:33:28.775Z,16.57
2018-02-04T13:35:59.978Z,15.80
2018-02-04T13:38:29.745Z,14.17
2018-02-04T13:40:59.883Z,14.43
2018-02-04T13:43:29.734Z,12.90
2018-02-04T13:45:59.520Z,14.20
2018-02-04T13:48:29.757Z,13.90
2018-02-04T13:50:59.368Z,13.50
2018-02-04T13:53:29.583Z,16.03
2018-02-04T13:56:00.131Z,14.10
2018-02-04T13:58:30.040Z,11.40
2018-02-04T14:00:59.729Z,11.70
2018-02-04T14:03:30.357Z,14.90
2018-02-04T14:06:00.845Z,13.23
2018-02-04T14:08:31.357Z,14.80
2018-02-04T14:11:00.805Z,14.53
2018-02-04T14:13:30.576Z,15.43
2018-02-04T14:16:00.487Z,13.50
2018-02-04T14:18:30.867Z,13.40
2018-02-04T14:21:00.945Z,12.40
2018-02-04T14:23:31.314Z,16.63
2018-02-04T14:26:03.764Z,11.20
2018-02-04T14:28:34.015Z,13.67
2018-02-04T14:31:03.983Z,11.07
2018-02-04T14:33:34.090Z,12.70
2018-02-04T14:36:04.156Z,12.80
2018-02-04T14:38:33.945Z,14.00
2018-02-04T14:41:03.932Z,13.07
2018-02-04T14:43:33.572Z,11.63
2018-02-04T14:46:03.848Z,12.60
2018-02-04T14:48:34.430Z,12.57
2018-02-04T14:51:05.336Z,11.20
2018-02-04T14:53:34.963Z,12.23
2018-02-04T14:56:04.597Z,12.60
2018-02-04T14:58:34.441Z,13.03
2018-02-04T15:01:05.029Z,13.10
2018-02-04T15:03:35.019Z,10.30
2018-02-04T15:06:08.202Z,10.07
2018-02-04T15:08:39.378Z,11.60
2018-02-04T15:11:09.781Z,13.50
2018-02-04T15:13:40.801Z,12.23
2018-02-04T15:16:10.879Z,12.97
2018-02-04T15:18:41.781Z,11.37
2018-02-04T15:21:12.839Z,11.00
2018-02-04T15:23:44.401Z,10.87
2018-02-04T15:26:14.655Z,12.87
2018-02-04T15:28:44.921Z,12.50
2018-02-04T15:31:14.851Z,9.80
2018-02-04T15:33:46.085Z,10.80
2018-02-04T15:36:16.533Z,9.00
2018-02-04T15:38:46.005Z,10.63
2018-02-04T15:41:16.650Z,13.03
2018-02-04T15:43:46.498Z,8.63
2018-02-04T15:46:16.644Z,13.47
2018-02-04T15:48:46.952Z,10.47
2018-02-04T15:51:17.418Z,10.90
2018-02-04T15:53:47.550Z,11.10
2018-02-04T15:56:17.482Z,12.20
2018-02-04T15:58:48.315Z,9.50
2018-02-04T16:01:18.117Z,10.10
2018-02-04T16:03:48.506Z,7.70
2018-02-04T16:06:18.873Z,10.43
2018-02-04T16:08:48.513Z,11.53
2018-02-04T16:11:18.876Z,13.10
2018-02-04T16:13:49.906Z,9.90
2018-02-04T16:16:21.612Z,12.30
2018-02-04T16:18:52.503Z,9.23
2018-02-04T16:21:23.105Z,10.87
2018-02-04T16:23:53.973Z,10.33
2018-02-04T16:26:23.969Z,11.20
2018-02-04T16:28:54.782Z,12.27
2018-02-04T16:31:26.222Z,11.10
2018-02-04T16:34:00.828Z,9.43
2018-02-04T16:36:34.026Z,10.57
2018-02-04T16:39:05.491Z,12.87
2018-02-04T16:41:36.672Z,12.77
2018-02-04T16:44:07.721Z,10.27
2018-02-04T16:46:38.112Z,12.47
2018-02-04T16:49:09.110Z,9.30
2018-02-04T16:51:39.989Z,10.47
2018-02-04T16:54:11.365Z,12.60
2018-02-04T16:56:42.084Z,10.13
2018-02-04T16:59:12.896Z,11.40
2018-02-04T17:01:43.827Z,12.00
2018-02-04T17:04:18.886Z,10.67
2018-02-04T17:06:56.240Z,12.00
2018-02-04T17:09:27.136Z,9.27
2018-02-04T17:11:58.059Z,10.10
2018-02-04T17:14:28.670Z,11.90
2018-02-04T17:16:58.977Z,11.00
2018-02-04T17:19:30.125Z,12.47
2018-02-04T17:22:01.429Z,12.33
2018-02-04T17:24:32.983Z,12.57
2018-02-04T17:27:03.441Z,8.53
2018-02-04T17:29:33.741Z,7.37
2018-02-04T17:32:04.501Z,8.10
2018-02-04T17:34:34.897Z,10.50
2018-02-04T17:37:05.157Z,12.10
2018-02-04T17:39:35.236Z,9.47
2018-02-04T17:42:06.915Z,8.97
2018-02-04T17:44:38.532Z,8.77
2018-02-04T17:47:08.447Z,7.53
2018-02-04T17:49:39.656Z,8.70
2018-02-04T17:52:11.078Z,9.80
2018-02-04T17:54:42.352Z,8.07
2018-02-04T17:57:13.290Z,6.93
2018-02-04T17:59:45.136Z,9.00
2018-02-04T18:02:15.708Z,9.07
2018-02-04T18:04:48.240Z,11.50
2018-02-04T18:07:18.838Z,8.23
2018-02-04T18:09:52.169Z,8.50
2018-02-04T18:12:23.857Z,8.40
2018-02-04T18:14:55.687Z,11.37
2018-02-04T18:17:28.545Z,9.97
2018-02-04T18:19:59.130Z,8.50
2018-02-04T18:22:31.160Z,6.77
2018-02-04T18:25:02.399Z,9.77
2018-02-04T18:27:33.589Z,9.80
2018-02-04T18:30:03.810Z,8.70
2018-02-04T18:32:34.245Z,8.10
2018-02-04T18:35:05.188Z,8.47
2018-02-04T18:37:36.221Z,8.50
2018-02-04T18:40:06.153Z,7.47
2018-02-04T18:42:37.535Z,9.40
2018-02-04T18:45:08.889Z,8.17
2018-02-04T18:47:40.132Z,9.70
2018-02-04T18:50:10.123Z,8.50
2018-02-04T18:52:40.701Z,9.60
2018-02-04T18:55:12.057Z,6.93
2018-02-04T18:57:44.541Z,7.60
2018-02-04T19:00:15.780Z,10.83
2018-02-04T19:02:46.138Z,8.30
2018-02-04T19:05:18.581Z,9.10
2018-02-04T19:07:51.592Z,8.70
2018-02-04T19:10:22.189Z,13.77
2018-02-04T19:12:56.769Z,9.13
2018-02-04T19:15:27.503Z,8.30
2018-02-04T19:17:59.556Z,8.77
2018-02-04T19:20:33.179Z,9.57
2018-02-04T19:23:05.187Z,11.00
2018-02-04T19:25:35.594Z,10.27
2018-02-04T19:28:06.199Z,9.60
2018-02-04T19:30:36.521Z,10.80
2018-02-04T19:33:08.104Z,10.97
2018-02-04T19:35:38.045Z,9.83
2018-02-04T19:38:08.879Z,10.30
2018-02-04T19:40:38.923Z,9.30
2018-02-04T19:43:08.656Z,12.63
2018-02-04T19:45:39.723Z,10.40
2018-02-04T19:48:09.732Z,9.57
2018-02-04T19:50:40.466Z,9.50
2018-02-04T19:53:11.205Z,9.17
2018-02-04T19:55:41.426Z,8.87
2018-02-04T19:58:11.800Z,10.27
2018-02-04T20:00:42.240Z,13.13
2018-02-04T20:03:12.271Z,11.40
2018-02-04T20:05:43.113Z,7.90
2018-02-04T20:08:14.857Z,8.60
2018-02-04T20:10:45.145Z,13.70
2018-02-04T20:13:15.416Z,11.10
2018-02-04T20:15:46.164Z,10.33
2018-02-04T20:18:17.106Z,11.07
2018-02-04T20:20:47.783Z,8.57
2018-02-04T20:23:18.122Z,12.40
2018-02-04T20:25:48.011Z,10.43
2018-02-04T20:28:18.517Z,11.80
2018-02-04T20:30:49.355Z,12.03
2018-02-04T20:33:25.220Z,11.40
2018-02-04T20:35:55.469Z,10.43
2018-02-04T20:38:25.348Z,9.97
2018-02-04T20:40:57.631Z,10.03
2018-02-04T20:43:27.993Z,9.77
2018-02-04T20:46:04.118Z,9.23
2018-02-04T20:48:36.810Z,9.03
2018-02-04T20:51:08.214Z,9.80
2018-02-04T20:53:40.772Z,11.90
2018-02-04T20:56:13.689Z,12.87
2018-02-04T20:58:48.390Z,9.80
2018-02-04T21:01:20.792Z,10.53
2018-02-04T21:03:54.061Z,12.00
2018-02-04T21:06:24.450Z,14.90
2018-02-04T21:08:55.410Z,8.23
2018-02-04T21:11:27.319Z,9.23
2018-02-04T21:13:58.448Z,12.27
2018-02-04T21:16:29.866Z,14.10
2018-02-04T21:19:01.598Z,11.83
2018-02-04T21:21:32.465Z,16.87
2018-02-04T21:24:04.472Z,13.87
2018-02-04T21:26:37.505Z,12.20
2018-02-04T21:29:13.787Z,10.10
2018-02-04T21:31:43.822Z,12.20
2018-02-04T21:34:14.246Z,9.30
2018-02-04T21:36:44.171Z,16.27
2018-02-04T21:39:14.424Z,10.40
2018-02-04T21:41:44.174Z,11.07
2018-02-04T21:44:14.228Z,11.70
2018-02-04T21:46:43.968Z,10.47
2018-02-04T21:49:13.991Z,10.63
2018-02-04T21:51:44.030Z,9.20
2018-02-04T21:54:13.866Z,10.50
2018-02-04T21:56:44.878Z,12.00
2018-02-04T21:59:15.253Z,12.00
2018-02-04T22:01:45.747Z,13.27
2018-02-04T22:04:16.175Z,11.33
2018-02-04T22:06:46.561Z,9.73
2018-02-04T22:09:18.620Z,14.50
2018-02-04T22:11:48.254Z,10.60
2018-02-04T22:14:18.831Z,9.97
2018-02-04T22:16:49.609Z,8.80
2018-02-04T22:19:20.500Z,9.87
2018-02-04T22:21:50.509Z,10.30
2018-02-04T22:24:20.663Z,13.00
2018-02-04T22:26:50.706Z,11.30
2018-02-04T22:29:20.430Z,13.67
2018-02-04T22:31:50.722Z,12.10
2018-02-04T22:34:20.700Z,10.03
2018-02-04T22:36:50.636Z,12.90
2018-02-04T22:39:20.227Z,11.17
2018-02-04T22:41:50.918Z,11.63
2018-02-04T22:44:21.436Z,17.63
2018-02-04T22:46:52.250Z,11.87
2018-02-04T22:49:23.996Z,12.00
2018-02-04T22:51:57.514Z,10.33
2018-02-04T22:54:27.813Z,15.43
2018-02-04T22:57:00.655Z,13.63
2018-02-04T22:59:31.950Z,13.97
2018-02-04T23:02:02.434Z,12.13
2018-02-04T23:04:33.510Z,12.77
2018-02-04T23:07:05.492Z,15.20
2018-02-04T23:09:36.591Z,10.10
2018-02-04T23:12:06.874Z,12.53
2018-02-04T23:14:37.834Z,11.83
2018-02-04T23:17:10.145Z,9.83
2018-02-04T23:19:41.041Z,13.50
2018-02-04T23:22:12.205Z,13.23
2018-02-04T23:24:43.179Z,11.07
2018-02-04T23:27:14.218Z,13.67
2018-02-04T23:29:44.273Z,12.13
2018-02-04T23:32:16.775Z,11.60
2018-02-04T23:34:48.496Z,8.93
2018-02-04T23:37:20.529Z,11.90
2018-02-04T23:39:52.641Z,13.17
2018-02-04T23:42:24.074Z,10.07
2018-02-04T23:44:55.534Z,10.70
2018-02-04T23:47:26.990Z,13.50
2018-02-04T23:49:57.789Z,16.07
2018-02-04T23:52:30.049Z,10.83
2018-02-04T23:55:01.051Z,12.10
2018-02-04T23:57:33.062Z,13.70
